createdAt,value
2022-10-23T00:01:31.412Z,7.60
2022-10-23T00:04:09.109Z,7.78
2022-10-23T00:06:36.569Z,8.20
2022-10-23T00:09:07.013Z,7.45
2022-10-23T00:11:34.942Z,8.32
2022-10-23T00:14:03.033Z,8.32
2022-10-23T00:16:30.693Z,7.53
2022-10-23T00:18:57.967Z,7.75
2022-10-23T00:21:25.459Z,7.28
2022-10-23T00:23:52.654Z,7.43
2022-10-23T00:26:19.831Z,7.88
2022-10-23T00:28:48.946Z,8.15
2022-10-23T00:31:16.457Z,8.20
2022-10-23T00:33:43.864Z,7.65
2022-10-23T00:36:12.110Z,7.95
2022-10-23T00:38:39.773Z,7.97
2022-10-23T00:41:08.026Z,7.65
2022-10-23T00:43:35.587Z,7.82
2022-10-23T00:46:02.736Z,7.20
2022-10-23T00:48:30.100Z,7.90
2022-10-23T00:50:57.551Z,7.78
2022-10-23T00:53:24.935Z,7.82
2022-10-23T00:55:53.856Z,7.10
2022-10-23T00:58:21.414Z,7.43
2022-10-23T01:00:55.896Z,7.18
2022-10-23T01:03:26.816Z,7.32
2022-10-23T01:05:56.629Z,7.38
2022-10-23T01:08:35.966Z,7.32
2022-10-23T01:11:11.017Z,7.50
2022-10-23T01:19:23.607Z,8.10
2022-10-23T01:21:53.389Z,7.93
2022-10-23T01:24:23.819Z,7.00
2022-10-23T01:26:55.937Z,8.20
2022-10-23T01:29:30.012Z,7.43
2022-10-23T01:32:00.719Z,7.32
2022-10-23T01:34:33.029Z,6.97
2022-10-23T01:37:02.753Z,7.10
2022-10-23T01:39:36.462Z,7.38
2022-10-23T01:42:09.573Z,7.20
2022-10-23T01:44:36.617Z,6.78
2022-10-23T01:47:04.661Z,7.07
2022-10-23T01:49:34.604Z,7.13
2022-10-23T01:52:02.940Z,7.07
2022-10-23T01:54:31.922Z,7.03
2022-10-23T01:56:59.381Z,7.78
2022-10-23T01:59:32.879Z,7.20
2022-10-23T02:02:01.077Z,7.30
2022-10-23T02:04:34.568Z,6.95
2022-10-23T02:07:01.969Z,7.10
2022-10-23T02:09:29.220Z,7.57
2022-10-23T02:12:02.494Z,7.65
2022-10-23T02:14:37.023Z,6.68
2022-10-23T02:17:45.754Z,7.25
2022-10-23T02:20:19.896Z,7.13
2022-10-23T02:23:00.858Z,6.95
2022-10-23T02:25:31.880Z,6.85
2022-10-23T02:28:02.611Z,6.88
2022-10-23T02:30:38.456Z,6.68
2022-10-23T02:33:10.120Z,7.03
2022-10-23T02:35:37.228Z,7.03
2022-10-23T02:38:35.943Z,6.93
2022-10-23T02:41:32.450Z,7.47
2022-10-23T02:44:02.594Z,7.45
2022-10-23T02:46:33.657Z,7.00
2022-10-23T02:49:20.142Z,7.22
2022-10-23T02:51:56.060Z,7.43
2022-10-23T02:54:35.522Z,6.93
2022-10-23T02:57:11.732Z,6.68
2022-10-23T02:59:48.335Z,7.13
2022-10-23T03:02:23.569Z,7.18
2022-10-23T03:04:51.618Z,7.43
2022-10-23T03:07:20.012Z,6.72
2022-10-23T03:09:47.554Z,6.97
2022-10-23T03:12:14.726Z,7.50
2022-10-23T03:14:41.798Z,6.90
2022-10-23T03:17:08.944Z,7.13
2022-10-23T03:19:36.041Z,6.60
2022-10-23T03:22:04.624Z,6.93
2022-10-23T03:24:31.697Z,6.55
2022-10-23T03:26:58.769Z,6.53
2022-10-23T03:29:31.459Z,6.18
2022-10-23T03:31:58.590Z,6.18
2022-10-23T03:34:26.279Z,6.68
2022-10-23T03:36:53.914Z,6.20
2022-10-23T03:39:21.460Z,6.40
2022-10-23T03:41:48.623Z,7.20
2022-10-23T03:44:17.262Z,6.70
2022-10-23T03:46:45.655Z,6.53
2022-10-23T03:49:12.729Z,7.13
2022-10-23T03:51:44.672Z,6.30
2022-10-23T03:54:11.719Z,6.95
2022-10-23T03:56:38.824Z,6.60
2022-10-23T03:59:08.097Z,6.40
2022-10-23T04:01:35.432Z,5.95
2022-10-23T04:04:03.550Z,6.53
2022-10-23T04:06:30.931Z,6.00
2022-10-23T04:08:59.373Z,6.25
2022-10-23T04:11:26.481Z,6.63
2022-10-23T04:13:53.927Z,6.15
2022-10-23T04:16:21.050Z,5.93
2022-10-23T04:18:48.115Z,5.88
2022-10-23T04:21:15.286Z,5.82
2022-10-23T04:23:42.596Z,6.35
2022-10-23T04:26:15.273Z,5.85
2022-10-23T04:28:42.602Z,5.65
2022-10-23T04:31:10.367Z,5.97
2022-10-23T04:33:40.923Z,5.90
2022-10-23T04:36:08.247Z,5.85
2022-10-23T04:38:35.295Z,5.88
2022-10-23T04:41:03.446Z,5.65
2022-10-23T04:43:30.527Z,6.03
2022-10-23T04:45:57.912Z,6.00
2022-10-23T04:48:27.078Z,5.72
2022-10-23T04:51:25.583Z,6.00
2022-10-23T04:54:09.423Z,5.60
2022-10-23T04:56:47.355Z,5.68
2022-10-23T04:59:20.090Z,6.10
2022-10-23T05:01:47.691Z,5.53
2022-10-23T05:04:14.864Z,5.03
2022-10-23T05:07:02.324Z,5.72
2022-10-23T05:09:46.570Z,5.97
2022-10-23T05:12:29.723Z,5.68
2022-10-23T05:14:57.165Z,6.47
2022-10-23T05:17:28.326Z,6.15
2022-10-23T05:19:56.878Z,5.97
2022-10-23T05:22:25.930Z,6.13
2022-10-23T05:24:54.158Z,5.78
2022-10-23T05:27:26.071Z,5.85
2022-10-23T05:29:54.777Z,5.70
2022-10-23T05:32:26.364Z,5.68
2022-10-23T05:34:53.917Z,5.75
2022-10-23T05:37:21.046Z,6.15
2022-10-23T05:39:48.263Z,6.20
2022-10-23T05:42:17.226Z,6.10
2022-10-23T05:44:45.299Z,6.15
2022-10-23T05:47:37.057Z,6.18
2022-10-23T05:50:16.465Z,5.80
2022-10-23T05:53:02.028Z,5.50
2022-10-23T05:55:50.291Z,6.20
2022-10-23T05:58:49.903Z,6.00
2022-10-23T06:01:38.014Z,6.47
2022-10-23T06:04:07.355Z,5.28
2022-10-23T06:06:56.699Z,5.68
2022-10-23T06:09:23.765Z,5.53
2022-10-23T06:11:55.802Z,5.63
2022-10-23T06:14:23.590Z,5.38
2022-10-23T06:16:52.262Z,5.28
2022-10-23T06:19:19.867Z,5.35
2022-10-23T06:21:50.303Z,5.35
2022-10-23T06:24:17.697Z,4.80
2022-10-23T06:26:49.728Z,6.18
2022-10-23T06:29:21.265Z,5.93
2022-10-23T06:31:50.400Z,5.57
2022-10-23T06:34:17.893Z,5.28
2022-10-23T06:36:46.557Z,5.50
2022-10-23T06:39:43.101Z,5.97
2022-10-23T06:42:23.222Z,5.35
2022-10-23T06:44:56.567Z,5.40
2022-10-23T06:47:43.848Z,5.97
2022-10-23T06:50:32.440Z,5.50
2022-10-23T06:53:05.328Z,5.15
2022-10-23T06:55:33.729Z,5.38
2022-10-23T06:58:00.879Z,5.40
2022-10-23T07:00:28.828Z,5.60
2022-10-23T07:02:56.905Z,5.10
2022-10-23T07:05:23.960Z,5.18
2022-10-23T07:07:51.343Z,6.63
2022-10-23T07:10:25.505Z,5.05
2022-10-23T07:13:06.101Z,5.00
2022-10-23T07:15:33.148Z,5.25
2022-10-23T07:18:01.030Z,5.38
2022-10-23T07:20:39.899Z,5.05
2022-10-23T07:23:07.115Z,4.97
2022-10-23T07:25:38.762Z,4.93
2022-10-23T07:28:06.652Z,5.05
2022-10-23T07:30:34.163Z,5.00
2022-10-23T07:33:02.447Z,5.07
2022-10-23T07:35:55.945Z,5.70
2022-10-23T07:38:27.849Z,5.68
2022-10-23T07:40:57.607Z,5.75
2022-10-23T07:43:25.442Z,5.43
2022-10-23T07:45:53.031Z,5.88
2022-10-23T07:48:37.644Z,5.78
2022-10-23T07:51:08.407Z,5.30
2022-10-23T07:53:39.997Z,5.00
2022-10-23T07:56:17.880Z,5.40
2022-10-23T07:59:07.803Z,5.03
2022-10-23T08:01:37.475Z,5.65
2022-10-23T08:04:05.459Z,5.50
2022-10-23T08:06:35.340Z,5.68
2022-10-23T08:09:06.205Z,5.65
2022-10-23T08:14:08.261Z,5.15
2022-10-23T08:16:36.651Z,5.07
2022-10-23T08:19:04.474Z,5.50
2022-10-23T08:21:32.023Z,5.47
2022-10-23T08:23:59.828Z,5.47
2022-10-23T08:26:29.363Z,5.28
2022-10-23T08:28:56.896Z,5.07
2022-10-23T08:31:23.966Z,4.90
2022-10-23T08:34:08.595Z,4.85
2022-10-23T08:36:36.397Z,5.43
2022-10-23T08:39:04.716Z,5.70
2022-10-23T08:41:42.897Z,5.03
2022-10-23T08:44:13.689Z,5.30
2022-10-23T08:46:47.752Z,5.03
2022-10-23T08:49:37.009Z,4.38
2022-10-23T08:52:14.950Z,4.70
2022-10-23T08:54:49.364Z,4.15
2022-10-23T08:57:17.840Z,4.35
2022-10-23T08:59:47.695Z,4.30
2022-10-23T09:02:20.092Z,4.13
2022-10-23T09:04:49.190Z,4.45
2022-10-23T09:07:26.441Z,4.75
2022-10-23T09:09:56.602Z,4.50
2022-10-23T09:12:24.676Z,4.40
2022-10-23T09:15:09.054Z,4.03
2022-10-23T09:17:38.985Z,3.95
2022-10-23T09:20:14.044Z,4.05
2022-10-23T09:22:41.593Z,3.60
2022-10-23T09:25:16.190Z,4.13
2022-10-23T09:27:53.223Z,4.45
2022-10-23T09:30:49.168Z,4.30
2022-10-23T09:33:17.870Z,4.32
2022-10-23T09:36:02.175Z,3.67
2022-10-23T09:38:40.093Z,4.20
2022-10-23T09:41:10.991Z,3.72
2022-10-23T09:43:38.103Z,4.30
2022-10-23T09:46:07.765Z,4.47
2022-10-23T09:48:36.262Z,3.67
2022-10-23T09:51:20.010Z,3.55
2022-10-23T09:53:57.610Z,3.63
2022-10-23T09:56:26.085Z,3.85
2022-10-23T09:58:56.690Z,3.70
2022-10-23T10:01:29.921Z,3.20
2022-10-23T10:04:11.092Z,3.00
2022-10-23T10:06:38.275Z,3.25
2022-10-23T10:09:15.499Z,3.25
2022-10-23T10:11:52.338Z,3.20
2022-10-23T10:14:36.612Z,3.38
2022-10-23T10:17:12.957Z,3.55
2022-10-23T10:19:39.991Z,3.08
2022-10-23T10:22:23.384Z,3.88
2022-10-23T10:24:57.170Z,3.17
2022-10-23T10:28:03.695Z,2.83
2022-10-23T10:30:37.731Z,2.80
2022-10-23T10:33:15.848Z,2.92
2022-10-23T10:35:46.477Z,2.75
2022-10-23T10:38:31.658Z,2.97
2022-10-23T10:41:37.275Z,2.70
2022-10-23T10:44:04.396Z,3.47
2022-10-23T10:46:49.965Z,2.80
2022-10-23T10:52:22.713Z,3.03
2022-10-23T10:55:18.435Z,2.90
2022-10-23T10:57:54.980Z,2.90
2022-10-23T11:00:24.285Z,3.28
2022-10-23T11:03:09.983Z,2.65
2022-10-23T11:08:16.962Z,3.10
2022-10-23T11:10:50.272Z,2.90
2022-10-23T11:13:36.166Z,3.17
2022-10-23T11:16:12.091Z,2.90
2022-10-23T11:18:41.542Z,3.20
2022-10-23T11:21:17.698Z,3.25
2022-10-23T11:23:55.959Z,2.85
2022-10-23T11:26:42.764Z,2.90
2022-10-23T11:29:31.114Z,2.92
2022-10-23T11:31:58.145Z,2.85
2022-10-23T11:34:40.309Z,2.72
2022-10-23T11:37:09.009Z,2.80
2022-10-23T11:39:37.052Z,3.22
2022-10-23T11:42:09.554Z,2.80
2022-10-23T11:44:40.584Z,2.70
2022-10-23T11:47:26.701Z,2.80
2022-10-23T11:50:11.246Z,2.83
2022-10-23T11:52:45.764Z,3.05
2022-10-23T11:55:24.215Z,2.92
2022-10-23T11:58:13.736Z,2.83
2022-10-23T12:00:51.807Z,2.67
2022-10-23T12:03:23.385Z,2.60
2022-10-23T12:05:57.970Z,3.03
2022-10-23T12:08:28.588Z,2.42
2022-10-23T12:10:55.946Z,2.65
2022-10-23T12:13:42.475Z,2.83
2022-10-23T12:16:09.690Z,2.13
2022-10-23T12:18:53.831Z,2.40
2022-10-23T12:21:28.445Z,2.30
2022-10-23T12:24:39.820Z,2.63
2022-10-23T12:27:24.175Z,2.60
2022-10-23T12:29:59.777Z,2.58
2022-10-23T12:32:48.185Z,2.00
2022-10-23T12:35:18.110Z,2.45
2022-10-23T12:37:52.355Z,2.70
2022-10-23T12:40:19.503Z,2.67
2022-10-23T12:42:54.579Z,2.53
2022-10-23T12:45:32.902Z,2.10
2022-10-23T12:48:00.390Z,2.53
2022-10-23T12:50:30.032Z,2.80
2022-10-23T12:52:57.185Z,2.70
2022-10-23T12:55:25.676Z,2.47
2022-10-23T12:57:53.267Z,2.50
2022-10-23T13:00:21.924Z,2.90
2022-10-23T13:03:00.277Z,2.70
2022-10-23T13:05:27.761Z,2.78
2022-10-23T13:07:55.183Z,2.50
2022-10-23T13:10:33.514Z,2.50
2022-10-23T13:13:06.302Z,2.53
2022-10-23T13:15:44.574Z,2.40
2022-10-23T13:18:14.409Z,1.95
2022-10-23T13:20:44.264Z,2.38
2022-10-23T13:23:41.807Z,2.35
2022-10-23T13:26:45.075Z,2.30
2022-10-23T13:29:20.753Z,2.28
2022-10-23T13:31:48.250Z,2.40
2022-10-23T13:34:17.549Z,2.38
2022-10-23T13:36:53.574Z,2.40
2022-10-23T13:39:32.104Z,2.45
2022-10-23T13:42:12.027Z,2.08
2022-10-23T13:44:39.439Z,2.40
2022-10-23T13:47:06.822Z,2.63
2022-10-23T13:49:33.887Z,2.22
2022-10-23T13:52:00.932Z,2.25
2022-10-23T13:54:28.988Z,2.33
2022-10-23T13:56:56.679Z,2.47
2022-10-23T13:59:23.888Z,2.67
2022-10-23T14:01:51.482Z,2.38
2022-10-23T14:04:19.082Z,2.47
2022-10-23T14:06:46.223Z,2.30
2022-10-23T14:09:17.683Z,2.40
2022-10-23T14:11:45.142Z,2.40
2022-10-23T14:14:12.246Z,2.28
2022-10-23T14:16:39.304Z,2.40
2022-10-23T14:19:06.483Z,2.17
2022-10-23T14:21:33.558Z,2.30
2022-10-23T14:24:00.595Z,2.35
2022-10-23T14:26:30.046Z,2.50
2022-10-23T14:29:00.670Z,2.40
2022-10-23T14:31:31.529Z,2.20
2022-10-23T14:34:00.615Z,2.38
2022-10-23T14:36:38.380Z,2.35
2022-10-23T14:39:16.128Z,2.13
2022-10-23T14:41:43.249Z,2.17
2022-10-23T14:44:10.353Z,2.15
2022-10-23T14:46:38.218Z,2.38
2022-10-23T14:49:05.411Z,2.67
2022-10-23T14:51:32.487Z,2.03
2022-10-23T14:54:04.591Z,2.20
2022-10-23T14:56:32.737Z,2.30
2022-10-23T14:59:03.417Z,2.20
2022-10-23T15:01:30.922Z,2.55
2022-10-23T15:03:58.075Z,2.10
2022-10-23T15:06:25.190Z,2.40
2022-10-23T15:08:54.879Z,2.70
2022-10-23T15:11:22.096Z,2.35
2022-10-23T15:13:49.143Z,2.42
2022-10-23T15:16:16.573Z,2.40
2022-10-23T15:18:43.711Z,2.70
2022-10-23T15:21:10.959Z,2.15
2022-10-23T15:23:40.162Z,2.42
2022-10-23T15:26:09.536Z,2.38
2022-10-23T15:28:36.596Z,2.28
2022-10-23T15:31:03.978Z,2.65
2022-10-23T15:33:31.074Z,2.75
2022-10-23T15:35:58.139Z,2.60
2022-10-23T15:38:26.034Z,2.95
2022-10-23T15:41:00.356Z,3.00
2022-10-23T15:43:27.432Z,2.72
2022-10-23T15:45:54.560Z,3.33
2022-10-23T15:48:21.602Z,3.72
2022-10-23T15:50:48.734Z,3.20
2022-10-23T15:53:15.905Z,3.25
2022-10-23T15:55:42.998Z,3.00
2022-10-23T15:58:10.051Z,3.00
2022-10-23T16:00:38.301Z,3.00
2022-10-23T16:03:05.344Z,3.92
2022-10-23T16:05:32.478Z,3.55
2022-10-23T16:07:59.538Z,2.95
2022-10-23T16:10:26.586Z,3.38
2022-10-23T16:12:53.663Z,3.33
2022-10-23T16:15:20.721Z,3.40
2022-10-23T16:17:48.782Z,3.17
2022-10-23T16:20:16.381Z,3.65
2022-10-23T16:22:45.055Z,2.90
2022-10-23T16:25:12.240Z,3.30
2022-10-23T16:27:39.449Z,3.10
2022-10-23T16:30:09.175Z,2.63
2022-10-23T16:32:36.747Z,2.95
2022-10-23T16:35:03.822Z,3.25
2022-10-23T16:37:41.172Z,3.55
2022-10-23T16:40:14.064Z,2.88
2022-10-23T16:43:04.329Z,3.60
2022-10-23T16:45:37.818Z,3.08
2022-10-23T16:48:05.157Z,3.13
2022-10-23T16:50:32.247Z,2.92
2022-10-23T16:52:59.286Z,2.80
2022-10-23T16:55:26.368Z,3.38
2022-10-23T16:57:53.414Z,2.67
2022-10-23T17:00:22.540Z,3.33
2022-10-23T17:02:49.722Z,3.20
2022-10-23T17:05:16.779Z,3.10
2022-10-23T17:07:44.141Z,3.60
2022-10-23T17:10:11.420Z,3.50
2022-10-23T17:12:38.487Z,3.08
2022-10-23T17:15:05.919Z,3.53
2022-10-23T17:17:33.389Z,3.10
2022-10-23T17:20:00.517Z,3.38
2022-10-23T17:22:27.732Z,3.55
2022-10-23T17:24:54.864Z,3.10
2022-10-23T17:27:21.963Z,3.47
2022-10-23T17:29:49.050Z,3.40
2022-10-23T17:32:16.222Z,3.65
2022-10-23T17:34:43.408Z,3.30
2022-10-23T17:37:13.060Z,3.17
2022-10-23T17:39:41.199Z,3.75
2022-10-23T17:42:08.263Z,3.63
2022-10-23T17:44:35.328Z,3.50
2022-10-23T17:47:02.404Z,3.45
2022-10-23T17:49:29.434Z,3.50
2022-10-23T17:51:57.658Z,3.13
2022-10-23T17:54:26.163Z,3.03
2022-10-23T17:56:53.285Z,3.17
2022-10-23T17:59:20.378Z,3.22
2022-10-23T18:01:48.983Z,3.63
2022-10-23T18:04:18.237Z,3.10
2022-10-23T18:06:47.753Z,3.10
2022-10-23T18:09:14.827Z,3.33
2022-10-23T18:11:45.231Z,3.20
2022-10-23T18:14:14.424Z,3.83
2022-10-23T18:16:41.731Z,3.05
2022-10-23T18:19:08.857Z,3.70
2022-10-23T18:21:37.790Z,3.10
2022-10-23T18:24:05.112Z,3.00
2022-10-23T18:26:34.923Z,3.08
2022-10-23T18:29:04.299Z,2.83
2022-10-23T18:31:31.451Z,2.70
2022-10-23T18:34:04.048Z,2.45
2022-10-23T18:36:33.382Z,2.83
2022-10-23T18:39:00.605Z,3.30
2022-10-23T18:41:28.092Z,2.67
2022-10-23T18:43:55.549Z,3.10
2022-10-23T18:46:22.648Z,2.63
2022-10-23T18:48:53.071Z,2.50
2022-10-23T18:51:23.424Z,2.75
2022-10-23T18:53:51.031Z,2.60
2022-10-23T18:56:23.320Z,2.80
2022-10-23T18:58:51.402Z,2.67
2022-10-23T19:01:19.222Z,2.60
2022-10-23T19:03:46.733Z,2.67
2022-10-23T19:06:14.460Z,2.83
2022-10-23T19:08:42.950Z,3.10
2022-10-23T19:11:10.527Z,3.22
2022-10-23T19:13:39.182Z,3.40
2022-10-23T19:16:11.406Z,3.10
2022-10-23T19:18:38.970Z,3.25
2022-10-23T19:21:06.296Z,2.78
2022-10-23T19:23:36.220Z,2.97
2022-10-23T19:26:11.841Z,2.85
2022-10-23T19:28:40.619Z,2.60
2022-10-23T19:31:09.723Z,3.17
2022-10-23T19:33:38.390Z,2.80
2022-10-23T19:36:07.987Z,2.65
2022-10-23T19:38:40.055Z,2.50
2022-10-23T19:41:07.310Z,2.60
2022-10-23T19:43:34.430Z,2.72
2022-10-23T19:46:04.982Z,2.50
2022-10-23T19:48:35.057Z,2.97
2022-10-23T19:51:02.203Z,2.10
2022-10-23T19:53:29.558Z,2.53
2022-10-23T19:56:07.164Z,2.85
2022-10-23T19:58:34.249Z,2.30
2022-10-23T20:01:13.668Z,2.90
2022-10-23T20:03:41.687Z,2.55
2022-10-23T20:06:09.683Z,2.55
2022-10-23T20:08:36.806Z,2.60
2022-10-23T20:11:03.851Z,2.85
2022-10-23T20:13:31.096Z,2.40
2022-10-23T20:15:58.143Z,2.55
2022-10-23T20:18:25.902Z,2.30
2022-10-23T20:20:53.588Z,1.95
2022-10-23T20:23:20.917Z,2.50
2022-10-23T20:25:48.070Z,2.00
2022-10-23T20:28:15.348Z,2.10
2022-10-23T20:30:44.000Z,1.85
2022-10-23T20:33:11.179Z,2.10
2022-10-23T20:35:39.974Z,2.00
2022-10-23T20:38:07.123Z,1.70
2022-10-23T20:40:34.425Z,1.50
2022-10-23T20:43:01.471Z,1.90
2022-10-23T20:45:28.601Z,1.45
2022-10-23T20:47:55.664Z,1.45
2022-10-23T20:50:23.794Z,1.70
2022-10-23T20:52:51.283Z,1.42
2022-10-23T20:55:18.315Z,1.40
2022-10-23T20:57:45.790Z,1.27
2022-10-23T21:00:13.349Z,1.38
2022-10-23T21:02:40.652Z,1.27
2022-10-23T21:05:08.243Z,1.70
2022-10-23T21:07:35.326Z,1.15
2022-10-23T21:10:03.237Z,1.10
2022-10-23T21:12:30.471Z,0.90
2022-10-23T21:14:57.658Z,0.82
2022-10-23T21:17:24.908Z,1.08
2022-10-23T21:19:52.030Z,0.90
2022-10-23T21:22:19.121Z,1.00
2022-10-23T21:24:46.244Z,0.98
2022-10-23T21:27:15.034Z,1.20
2022-10-23T21:29:42.180Z,1.05
2022-10-23T21:32:09.348Z,1.00
2022-10-23T21:34:36.574Z,0.80
2022-10-23T21:37:13.035Z,1.00
2022-10-23T21:39:41.742Z,1.10
2022-10-23T21:42:08.872Z,0.90
2022-10-23T21:44:36.096Z,1.10
2022-10-23T21:47:03.159Z,1.17
2022-10-23T21:49:30.220Z,0.95
2022-10-23T21:51:57.272Z,1.20
2022-10-23T21:54:24.345Z,1.00
2022-10-23T21:56:55.683Z,0.90
2022-10-23T21:59:25.789Z,1.10
2022-10-23T22:01:56.290Z,1.13
2022-10-23T22:04:23.544Z,0.90
2022-10-23T22:06:50.857Z,0.95
2022-10-23T22:09:19.569Z,1.05
2022-10-23T22:11:46.911Z,0.90
2022-10-23T22:14:13.994Z,1.08
2022-10-23T22:16:41.999Z,1.25
2022-10-23T22:19:10.472Z,1.10
2022-10-23T22:21:37.639Z,1.05
2022-10-23T22:26:38.432Z,1.00
2022-10-23T22:29:07.205Z,1.10
2022-10-23T22:31:34.967Z,1.10
2022-10-23T22:34:13.279Z,1.20
2022-10-23T22:36:51.363Z,1.10
2022-10-23T22:39:18.410Z,1.45
2022-10-23T22:41:46.457Z,1.55
2022-10-23T22:44:17.552Z,1.30
2022-10-23T22:46:45.035Z,1.30
2022-10-23T22:49:12.110Z,1.42
2022-10-23T22:51:42.228Z,1.63
2022-10-23T22:54:09.447Z,1.42
2022-10-23T22:56:36.571Z,1.40
2022-10-23T22:59:04.503Z,1.85
2022-10-23T23:01:34.394Z,1.50
2022-10-23T23:04:13.738Z,1.40
2022-10-23T23:06:48.860Z,1.27
2022-10-23T23:09:18.066Z,1.25
2022-10-23T23:11:52.072Z,1.20
2022-10-23T23:14:23.448Z,1.45
2022-10-23T23:16:52.028Z,1.50
2022-10-23T23:19:19.302Z,1.40
2022-10-23T23:21:46.394Z,1.42
2022-10-23T23:24:13.578Z,1.30
2022-10-23T23:26:41.044Z,1.50
2022-10-23T23:29:08.301Z,1.60
2022-10-23T23:31:35.365Z,1.70
2022-10-23T23:34:02.423Z,1.63
2022-10-23T23:36:29.633Z,1.42
2022-10-23T23:38:57.529Z,1.55
2022-10-23T23:41:25.877Z,1.80
2022-10-23T23:43:54.506Z,1.70
2022-10-23T23:46:21.741Z,1.60
2022-10-23T23:48:49.740Z,1.35
2022-10-23T23:51:18.295Z,1.60
2022-10-23T23:53:45.414Z,1.90
2022-10-23T23:56:12.578Z,1.70
2022-10-23T23:58:39.619Z,1.88
